Time;durP1;ratioP1;P1;durP2;ratioP2;P2;SDS_P1;SDS_P2;PMS_P1;PMS_P2;Temp;Humidity;BMP_temperature;BMP_pressure;BME280_temperature;BME280_humidity;BME280_pressure;Samples;Min_cycle;Max_cycle;Signal;HPM_P1;HPM_P2
2021/11/09 00:01:03;;;;;;;11.05;5.750001;;;;;;;0.23;61.92578;95950.41;;;;
2021/11/09 00:02:08;;;;;;;11.05;5.750001;;;;;;;0.23;61.92578;95950.41;;;;
2021/11/09 00:03:09;;;;;;;11.05;5.750001;;;;;;;0.23;61.92578;95950.41;;;;
2021/11/09 00:04:10;;;;;;;10.85;6;;;;;;;0.43;62.0166;95956.33;;;;
2021/11/09 00:05:13;;;;;;;10.85;6;;;;;;;0.43;62.0166;95956.33;;;;
2021/11/09 00:06:21;;;;;;;10.85;6;;;;;;;0.43;62.0166;95956.33;;;;
2021/11/09 00:07:26;;;;;;;10.85;6;;;;;;;0.43;62.0166;95956.33;;;;
2021/11/09 00:08:31;;;;;;;10.85;6;;;;;;;0.43;62.0166;95956.33;;;;
2021/11/09 00:09:45;;;;;;;10.85;6;;;;;;;0.43;62.0166;95956.33;;;;
2021/11/09 00:10:45;;;;;;;10.85;6;;;;;;;0.43;62.0166;95956.33;;;;
2021/11/09 00:11:47;;;;;;;10.85;6;;;;;;;0.43;62.0166;95956.33;;;;
2021/11/09 00:12:48;;;;;;;10.85;6;;;;;;;0.43;62.0166;95956.33;;;;
2021/11/09 00:13:51;;;;;;;10.85;6;;;;;;;0.43;62.0166;95956.33;;;;
2021/11/09 00:14:52;;;;;;;11.75;6.1;;;;;;;0.54;62.18066;95951.98;;;;
2021/11/09 00:15:54;;;;;;;11.75;6.1;;;;;;;0.54;62.18066;95951.98;;;;
2021/11/09 00:16:55;;;;;;;11.75;6.1;;;;;;;0.54;62.18066;95951.98;;;;
2021/11/09 00:17:56;;;;;;;11.75;6.1;;;;;;;0.54;62.18066;95951.98;;;;
2021/11/09 00:18:59;;;;;;;11.75;6.1;;;;;;;0.54;62.18066;95951.98;;;;
2021/11/09 00:20:01;;;;;;;11.75;6.1;;;;;;;0.54;62.18066;95951.98;;;;
2021/11/09 00:21:04;;;;;;;11.75;6.1;;;;;;;0.54;62.18066;95951.98;;;;
2021/11/09 00:22:05;;;;;;;11.75;6.1;;;;;;;0.54;62.18066;95951.98;;;;
2021/11/09 00:23:05;;;;;;;11.75;6.1;;;;;;;0.54;62.18066;95951.98;;;;
2021/11/09 00:24:08;;;;;;;11.75;6.1;;;;;;;0.54;62.18066;95951.98;;;;
2021/11/09 00:25:09;;;;;;;14.2;6.550001;;;;;;;0.63;62.39355;95946.2;;;;
2021/11/09 00:26:11;;;;;;;14.2;6.550001;;;;;;;0.63;62.39355;95946.2;;;;
2021/11/09 00:27:11;;;;;;;14.2;6.550001;;;;;;;0.63;62.39355;95946.2;;;;
2021/11/09 00:28:12;;;;;;;14.2;6.550001;;;;;;;0.63;62.39355;95946.2;;;;
2021/11/09 00:29:13;;;;;;;14.2;6.550001;;;;;;;0.63;62.39355;95946.2;;;;
2021/11/09 00:30:14;;;;;;;14.2;6.550001;;;;;;;0.63;62.39355;95946.2;;;;
2021/11/09 00:31:18;;;;;;;14.2;6.550001;;;;;;;0.63;62.39355;95946.2;;;;
2021/11/09 00:32:18;;;;;;;14.2;6.550001;;;;;;;0.63;62.39355;95946.2;;;;
2021/11/09 00:33:19;;;;;;;14.2;6.550001;;;;;;;0.63;62.39355;95946.2;;;;
2021/11/09 00:34:20;;;;;;;14.2;6.550001;;;;;;;0.63;62.39355;95946.2;;;;
2021/11/09 00:35:20;;;;;;;14.2;6.550001;;;;;;;0.63;62.39355;95946.2;;;;
2021/11/09 00:36:24;;;;;;;14.75;6.6;;;;;;;0.77;62.57031;95958.91;;;;
2021/11/09 00:37:25;;;;;;;14.75;6.6;;;;;;;0.77;62.57031;95958.91;;;;
2021/11/09 00:38:26;;;;;;;14.75;6.6;;;;;;;0.77;62.57031;95958.91;;;;
2021/11/09 00:39:27;;;;;;;14.75;6.6;;;;;;;0.77;62.57031;95958.91;;;;
2021/11/09 00:40:28;;;;;;;14.75;6.6;;;;;;;0.77;62.57031;95958.91;;;;
2021/11/09 00:41:31;;;;;;;14.75;6.6;;;;;;;0.77;62.57031;95958.91;;;;
2021/11/09 00:42:31;;;;;;;14.75;6.6;;;;;;;0.77;62.57031;95958.91;;;;
2021/11/09 00:43:33;;;;;;;14.75;6.6;;;;;;;0.77;62.57031;95958.91;;;;
2021/11/09 00:44:34;;;;;;;14.75;6.6;;;;;;;0.77;62.57031;95958.91;;;;
2021/11/09 00:45:35;;;;;;;14.75;6.6;;;;;;;0.77;62.57031;95958.91;;;;
2021/11/09 00:46:38;;;;;;;13.55;6.5;;;;;;;0.91;62.69727;95960.05;;;;
2021/11/09 00:47:38;;;;;;;13.55;6.5;;;;;;;0.91;62.69727;95960.05;;;;
2021/11/09 00:48:40;;;;;;;13.55;6.5;;;;;;;0.91;62.69727;95960.05;;;;
2021/11/09 00:49:40;;;;;;;13.55;6.5;;;;;;;0.91;62.69727;95960.05;;;;
2021/11/09 00:50:41;;;;;;;13.55;6.5;;;;;;;0.91;62.69727;95960.05;;;;
2021/11/09 00:51:44;;;;;;;13.55;6.5;;;;;;;0.91;62.69727;95960.05;;;;
2021/11/09 00:52:45;;;;;;;13.55;6.5;;;;;;;0.91;62.69727;95960.05;;;;
2021/11/09 00:53:46;;;;;;;13.55;6.5;;;;;;;0.91;62.69727;95960.05;;;;
2021/11/09 00:54:47;;;;;;;13.55;6.5;;;;;;;0.91;62.69727;95960.05;;;;
2021/11/09 00:55:48;;;;;;;13.55;6.5;;;;;;;0.91;62.69727;95960.05;;;;
2021/11/09 00:56:48;;;;;;;13.55;6.5;;;;;;;0.91;62.69727;95960.05;;;;
2021/11/09 00:57:49;;;;;;;17.3;7.95;;;;;;;1.05;62.82129;95959.49;;;;
2021/11/09 00:58:51;;;;;;;17.3;7.95;;;;;;;1.05;62.82129;95959.49;;;;
2021/11/09 00:59:51;;;;;;;17.3;7.95;;;;;;;1.05;62.82129;95959.49;;;;
2021/11/09 01:00:52;;;;;;;17.3;7.95;;;;;;;1.05;62.82129;95959.49;;;;
2021/11/09 01:01:53;;;;;;;17.3;7.95;;;;;;;1.05;62.82129;95959.49;;;;
2021/11/09 01:02:54;;;;;;;17.3;7.95;;;;;;;1.05;62.82129;95959.49;;;;
2021/11/09 01:03:56;;;;;;;17.3;7.95;;;;;;;1.05;62.82129;95959.49;;;;
2021/11/09 01:04:56;;;;;;;17.3;7.95;;;;;;;1.05;62.82129;95959.49;;;;
2021/11/09 01:05:57;;;;;;;17.3;7.95;;;;;;;1.05;62.82129;95959.49;;;;
2021/11/09 01:06:59;;;;;;;17.3;7.95;;;;;;;1.05;62.82129;95959.49;;;;
2021/11/09 01:08:00;;;;;;;12.8;8.249999;;;;;;;1.18;62.97754;95951.89;;;;
2021/11/09 01:09:03;;;;;;;12.8;8.249999;;;;;;;1.18;62.97754;95951.89;;;;
2021/11/09 01:10:06;;;;;;;12.8;8.249999;;;;;;;1.18;62.97754;95951.89;;;;
2021/11/09 01:11:08;;;;;;;12.8;8.249999;;;;;;;1.18;62.97754;95951.89;;;;
2021/11/09 01:12:10;;;;;;;12.8;8.249999;;;;;;;1.18;62.97754;95951.89;;;;
2021/11/09 01:13:11;;;;;;;12.8;8.249999;;;;;;;1.18;62.97754;95951.89;;;;
2021/11/09 01:14:12;;;;;;;12.8;8.249999;;;;;;;1.18;62.97754;95951.89;;;;
2021/11/09 01:15:13;;;;;;;12.8;8.249999;;;;;;;1.18;62.97754;95951.89;;;;
2021/11/09 01:16:15;;;;;;;12.8;8.249999;;;;;;;1.18;62.97754;95951.89;;;;
2021/11/09 01:17:18;;;;;;;12.8;8.249999;;;;;;;1.18;62.97754;95951.89;;;;
2021/11/09 01:18:18;;;;;;;12.55;7.65;;;;;;;1.25;63.11328;95965.3;;;;
2021/11/09 01:19:23;;;;;;;12.55;7.65;;;;;;;1.25;63.11328;95965.3;;;;
2021/11/09 01:20:24;;;;;;;12.55;7.65;;;;;;;1.25;63.11328;95965.3;;;;
2021/11/09 01:21:26;;;;;;;12.55;7.65;;;;;;;1.25;63.11328;95965.3;;;;
2021/11/09 01:22:27;;;;;;;12.55;7.65;;;;;;;1.25;63.11328;95965.3;;;;
2021/11/09 01:23:27;;;;;;;12.55;7.65;;;;;;;1.25;63.11328;95965.3;;;;
2021/11/09 01:24:29;;;;;;;12.55;7.65;;;;;;;1.25;63.11328;95965.3;;;;
2021/11/09 01:25:30;;;;;;;12.55;7.65;;;;;;;1.25;63.11328;95965.3;;;;
2021/11/09 01:26:30;;;;;;;12.55;7.65;;;;;;;1.25;63.11328;95965.3;;;;
2021/11/09 01:27:32;;;;;;;12.55;7.65;;;;;;;1.25;63.11328;95965.3;;;;
2021/11/09 01:28:33;;;;;;;12.55;7.65;;;;;;;1.25;63.11328;95965.3;;;;
2021/11/09 01:29:34;;;;;;;16.5;8.850001;;;;;;;1.27;63.2959;95956.66;;;;
2021/11/09 01:30:36;;;;;;;16.5;8.850001;;;;;;;1.27;63.2959;95956.66;;;;
2021/11/09 01:31:40;;;;;;;16.5;8.850001;;;;;;;1.27;63.2959;95956.66;;;;
2021/11/09 01:32:41;;;;;;;16.5;8.850001;;;;;;;1.27;63.2959;95956.66;;;;
2021/11/09 01:33:43;;;;;;;16.5;8.850001;;;;;;;1.27;63.2959;95956.66;;;;
2021/11/09 01:34:44;;;;;;;16.5;8.850001;;;;;;;1.27;63.2959;95956.66;;;;
2021/11/09 01:35:44;;;;;;;16.5;8.850001;;;;;;;1.27;63.2959;95956.66;;;;
2021/11/09 01:36:45;;;;;;;16.5;8.850001;;;;;;;1.27;63.2959;95956.66;;;;
2021/11/09 01:37:46;;;;;;;16.5;8.850001;;;;;;;1.27;63.2959;95956.66;;;;
2021/11/09 01:38:47;;;;;;;16.5;8.850001;;;;;;;1.27;63.2959;95956.66;;;;
2021/11/09 01:39:48;;;;;;;15.5;8.700001;;;;;;;1.32;63.46094;95938.37;;;;
2021/11/09 01:40:49;;;;;;;15.5;8.700001;;;;;;;1.32;63.46094;95938.37;;;;
2021/11/09 01:41:49;;;;;;;15.5;8.700001;;;;;;;1.32;63.46094;95938.37;;;;
2021/11/09 01:42:50;;;;;;;15.5;8.700001;;;;;;;1.32;63.46094;95938.37;;;;
2021/11/09 01:43:51;;;;;;;15.5;8.700001;;;;;;;1.32;63.46094;95938.37;;;;
2021/11/09 01:44:52;;;;;;;15.5;8.700001;;;;;;;1.32;63.46094;95938.37;;;;
2021/11/09 01:45:53;;;;;;;15.5;8.700001;;;;;;;1.32;63.46094;95938.37;;;;
2021/11/09 01:46:55;;;;;;;15.5;8.700001;;;;;;;1.32;63.46094;95938.37;;;;
2021/11/09 01:47:56;;;;;;;15.5;8.700001;;;;;;;1.32;63.46094;95938.37;;;;
2021/11/09 01:48:57;;;;;;;15.5;8.700001;;;;;;;1.32;63.46094;95938.37;;;;
2021/11/09 01:49:57;;;;;;;15.5;8.700001;;;;;;;1.32;63.46094;95938.37;;;;
2021/11/09 01:50:58;;;;;;;16.35;8.749999;;;;;;;1.41;63.6416;95943.63;;;;
2021/11/09 01:52:02;;;;;;;16.35;8.749999;;;;;;;1.41;63.6416;95943.63;;;;
2021/11/09 01:53:04;;;;;;;16.35;8.749999;;;;;;;1.41;63.6416;95943.63;;;;
2021/11/09 01:54:06;;;;;;;16.35;8.749999;;;;;;;1.41;63.6416;95943.63;;;;
2021/11/09 01:55:07;;;;;;;16.35;8.749999;;;;;;;1.41;63.6416;95943.63;;;;
2021/11/09 01:56:11;;;;;;;16.35;8.749999;;;;;;;1.41;63.6416;95943.63;;;;
2021/11/09 01:57:14;;;;;;;16.35;8.749999;;;;;;;1.41;63.6416;95943.63;;;;
2021/11/09 01:58:14;;;;;;;16.35;8.749999;;;;;;;1.41;63.6416;95943.63;;;;
2021/11/09 01:59:15;;;;;;;16.35;8.749999;;;;;;;1.41;63.6416;95943.63;;;;
2021/11/09 02:00:17;;;;;;;16.35;8.749999;;;;;;;1.41;63.6416;95943.63;;;;
2021/11/09 02:01:22;;;;;;;13.7;8.550001;;;;;;;1.51;63.74121;95950.04;;;;
2021/11/09 02:02:25;;;;;;;13.7;8.550001;;;;;;;1.51;63.74121;95950.04;;;;
2021/11/09 02:03:26;;;;;;;13.7;8.550001;;;;;;;1.51;63.74121;95950.04;;;;
2021/11/09 02:04:28;;;;;;;13.7;8.550001;;;;;;;1.51;63.74121;95950.04;;;;
2021/11/09 02:05:28;;;;;;;13.7;8.550001;;;;;;;1.51;63.74121;95950.04;;;;
2021/11/09 02:06:29;;;;;;;13.7;8.550001;;;;;;;1.51;63.74121;95950.04;;;;
2021/11/09 02:07:30;;;;;;;13.7;8.550001;;;;;;;1.51;63.74121;95950.04;;;;
2021/11/09 02:08:31;;;;;;;13.7;8.550001;;;;;;;1.51;63.74121;95950.04;;;;
2021/11/09 02:09:32;;;;;;;13.7;8.550001;;;;;;;1.51;63.74121;95950.04;;;;
2021/11/09 02:10:33;;;;;;;13.7;8.550001;;;;;;;1.51;63.74121;95950.04;;;;
2021/11/09 02:11:37;;;;;;;13.7;8.550001;;;;;;;1.51;63.74121;95950.04;;;;
2021/11/09 02:12:38;;;;;;;13.7;8.550001;;;;;;;1.51;63.74121;95950.04;;;;
2021/11/09 02:13:40;;;;;;;13.7;8.550001;;;;;;;1.51;63.74121;95950.04;;;;
2021/11/09 02:14:41;;;;;;;13.7;8.550001;;;;;;;1.51;63.74121;95950.04;;;;
2021/11/09 02:15:42;;;;;;;13.7;8.550001;;;;;;;1.51;63.74121;95950.04;;;;
2021/11/09 02:16:43;;;;;;;13.7;8.550001;;;;;;;1.51;63.74121;95950.04;;;;
2021/11/09 02:17:44;;;;;;;13.7;8.550001;;;;;;;1.51;63.74121;95950.04;;;;
2021/11/09 02:18:47;;;;;;;13.7;8.550001;;;;;;;1.51;63.74121;95950.04;;;;
2021/11/09 02:19:47;;;;;;;13.7;8.550001;;;;;;;1.51;63.74121;95950.04;;;;
2021/11/09 02:20:48;;;;;;;13.7;8.550001;;;;;;;1.51;63.74121;95950.04;;;;
2021/11/09 02:21:52;;;;;;;13.7;8.550001;;;;;;;1.51;63.74121;95950.04;;;;
2021/11/09 02:22:53;;;;;;;18.75;8.599999;;;;;;;1.66;64.0791;95935.58;;;;
2021/11/09 02:23:54;;;;;;;18.75;8.599999;;;;;;;1.66;64.0791;95935.58;;;;
2021/11/09 02:24:55;;;;;;;18.75;8.599999;;;;;;;1.66;64.0791;95935.58;;;;
2021/11/09 02:25:56;;;;;;;18.75;8.599999;;;;;;;1.66;64.0791;95935.58;;;;
2021/11/09 02:26:57;;;;;;;18.75;8.599999;;;;;;;1.66;64.0791;95935.58;;;;
2021/11/09 02:27:57;;;;;;;18.75;8.599999;;;;;;;1.66;64.0791;95935.58;;;;
2021/11/09 02:29:00;;;;;;;18.75;8.599999;;;;;;;1.66;64.0791;95935.58;;;;
2021/11/09 02:30:02;;;;;;;18.75;8.599999;;;;;;;1.66;64.0791;95935.58;;;;
2021/11/09 02:31:06;;;;;;;18.75;8.599999;;;;;;;1.66;64.0791;95935.58;;;;
2021/11/09 02:32:08;;;;;;;18.75;8.599999;;;;;;;1.66;64.0791;95935.58;;;;
2021/11/09 02:33:08;;;;;;;13.9;8.050002;;;;;;;1.55;64.26172;95939.4;;;;
2021/11/09 02:34:09;;;;;;;13.9;8.050002;;;;;;;1.55;64.26172;95939.4;;;;
2021/11/09 02:35:09;;;;;;;13.9;8.050002;;;;;;;1.55;64.26172;95939.4;;;;
2021/11/09 02:36:11;;;;;;;13.9;8.050002;;;;;;;1.55;64.26172;95939.4;;;;
2021/11/09 02:37:12;;;;;;;13.9;8.050002;;;;;;;1.55;64.26172;95939.4;;;;
2021/11/09 02:38:14;;;;;;;13.9;8.050002;;;;;;;1.55;64.26172;95939.4;;;;
2021/11/09 02:39:15;;;;;;;13.9;8.050002;;;;;;;1.55;64.26172;95939.4;;;;
2021/11/09 02:40:16;;;;;;;13.9;8.050002;;;;;;;1.55;64.26172;95939.4;;;;
2021/11/09 02:41:17;;;;;;;13.9;8.050002;;;;;;;1.55;64.26172;95939.4;;;;
2021/11/09 02:42:20;;;;;;;13.9;8.050002;;;;;;;1.55;64.26172;95939.4;;;;
2021/11/09 02:43:21;;;;;;;13.9;8.050002;;;;;;;1.55;64.26172;95939.4;;;;
2021/11/09 02:44:26;;;;;;;13.75;7.65;;;;;;;1.29;64.50684;95947.61;;;;
2021/11/09 02:45:28;;;;;;;13.75;7.65;;;;;;;1.29;64.50684;95947.61;;;;
2021/11/09 02:46:37;;;;;;;13.75;7.65;;;;;;;1.29;64.50684;95947.61;;;;
2021/11/09 02:47:38;;;;;;;13.75;7.65;;;;;;;1.29;64.50684;95947.61;;;;
2021/11/09 02:48:48;;;;;;;13.75;7.65;;;;;;;1.29;64.50684;95947.61;;;;
2021/11/09 02:49:56;;;;;;;13.75;7.65;;;;;;;1.29;64.50684;95947.61;;;;
2021/11/09 02:51:00;;;;;;;13.75;7.65;;;;;;;1.29;64.50684;95947.61;;;;
2021/11/09 02:52:05;;;;;;;13.75;7.65;;;;;;;1.29;64.50684;95947.61;;;;
2021/11/09 02:53:09;;;;;;;13.75;7.65;;;;;;;1.29;64.50684;95947.61;;;;
2021/11/09 02:54:14;;;;;;;13.75;7.65;;;;;;;1.29;64.50684;95947.61;;;;
2021/11/09 02:55:15;;;;;;;12.95;7.7;;;;;;;0.95;64.8125;95958.32;;;;
2021/11/09 02:56:22;;;;;;;12.95;7.7;;;;;;;0.95;64.8125;95958.32;;;;
2021/11/09 02:57:28;;;;;;;12.95;7.7;;;;;;;0.95;64.8125;95958.32;;;;
2021/11/09 02:58:40;;;;;;;12.95;7.7;;;;;;;0.95;64.8125;95958.32;;;;
2021/11/09 02:59:49;;;;;;;12.95;7.7;;;;;;;0.95;64.8125;95958.32;;;;
2021/11/09 03:01:02;;;;;;;12.95;7.7;;;;;;;0.95;64.8125;95958.32;;;;
2021/11/09 03:02:08;;;;;;;12.95;7.7;;;;;;;0.95;64.8125;95958.32;;;;
2021/11/09 03:03:14;;;;;;;12.95;7.7;;;;;;;0.95;64.8125;95958.32;;;;
2021/11/09 03:04:22;;;;;;;12.95;7.7;;;;;;;0.95;64.8125;95958.32;;;;
2021/11/09 03:05:27;;;;;;;15.6;8.000002;;;;;;;0.62;65.0752;95968.95;;;;
2021/11/09 03:06:32;;;;;;;15.6;8.000002;;;;;;;0.62;65.0752;95968.95;;;;
2021/11/09 03:07:39;;;;;;;15.6;8.000002;;;;;;;0.62;65.0752;95968.95;;;;
2021/11/09 03:08:43;;;;;;;15.6;8.000002;;;;;;;0.62;65.0752;95968.95;;;;
2021/11/09 03:09:48;;;;;;;15.6;8.000002;;;;;;;0.62;65.0752;95968.95;;;;
2021/11/09 03:10:51;;;;;;;15.6;8.000002;;;;;;;0.62;65.0752;95968.95;;;;
2021/11/09 03:11:56;;;;;;;15.6;8.000002;;;;;;;0.62;65.0752;95968.95;;;;
2021/11/09 03:12:56;;;;;;;15.6;8.000002;;;;;;;0.62;65.0752;95968.95;;;;
2021/11/09 03:13:58;;;;;;;15.6;8.000002;;;;;;;0.62;65.0752;95968.95;;;;
2021/11/09 03:14:59;;;;;;;15.6;8.000002;;;;;;;0.62;65.0752;95968.95;;;;
2021/11/09 03:16:03;;;;;;;17.2;8.25;;;;;;;0.33;65.2832;95964.39;;;;
2021/11/09 03:17:12;;;;;;;17.2;8.25;;;;;;;0.33;65.2832;95964.39;;;;
2021/11/09 03:18:15;;;;;;;17.2;8.25;;;;;;;0.33;65.2832;95964.39;;;;
2021/11/09 03:19:26;;;;;;;17.2;8.25;;;;;;;0.33;65.2832;95964.39;;;;
2021/11/09 03:20:32;;;;;;;17.2;8.25;;;;;;;0.33;65.2832;95964.39;;;;
2021/11/09 03:47:39;;;;;;;18;8.799999;;;;;;;-0.03;65.55273;95970.36;;;;
2021/11/09 03:48:40;;;;;;;15.25;8.550001;;;;;;;-0.16;65.55371;95970.34;;;;
2021/11/09 03:49:41;;;;;;;15.25;8.550001;;;;;;;-0.16;65.55371;95970.34;;;;
2021/11/09 03:50:42;;;;;;;15.25;8.550001;;;;;;;-0.16;65.55371;95970.34;;;;
2021/11/09 03:51:45;;;;;;;15.25;8.550001;;;;;;;-0.16;65.55371;95970.34;;;;
2021/11/09 03:52:49;;;;;;;15.25;8.550001;;;;;;;-0.16;65.55371;95970.34;;;;
2021/11/09 03:53:50;;;;;;;15.25;8.550001;;;;;;;-0.16;65.55371;95970.34;;;;
2021/11/09 03:54:54;;;;;;;15.25;8.550001;;;;;;;-0.16;65.55371;95970.34;;;;
2021/11/09 03:56:18;;;;;;;15.25;8.550001;;;;;;;-0.16;65.55371;95970.34;;;;
2021/11/09 03:57:22;;;;;;;15.25;8.550001;;;;;;;-0.16;65.55371;95970.34;;;;
2021/11/09 03:58:26;;;;;;;15.25;8.55;;;;;;;-0.3;65.63672;95966.43;;;;
2021/11/09 03:59:37;;;;;;;15.25;8.55;;;;;;;-0.3;65.63672;95966.43;;;;
2021/11/09 04:00:43;;;;;;;15.25;8.55;;;;;;;-0.3;65.63672;95966.43;;;;
2021/11/09 04:02:00;;;;;;;15.25;8.55;;;;;;;-0.3;65.63672;95966.43;;;;
2021/11/09 04:03:05;;;;;;;15.25;8.55;;;;;;;-0.3;65.63672;95966.43;;;;
2021/11/09 04:04:24;;;;;;;15.25;8.55;;;;;;;-0.3;65.63672;95966.43;;;;
2021/11/09 04:05:28;;;;;;;15.25;8.55;;;;;;;-0.3;65.63672;95966.43;;;;
2021/11/09 04:06:34;;;;;;;15.25;8.55;;;;;;;-0.3;65.63672;95966.43;;;;
2021/11/09 04:07:39;;;;;;;15.25;8.55;;;;;;;-0.3;65.63672;95966.43;;;;
2021/11/09 04:08:44;;;;;;;15.25;8.55;;;;;;;-0.3;65.63672;95966.43;;;;
2021/11/09 04:10:02;;;;;;;15.25;8.55;;;;;;;-0.3;65.63672;95966.43;;;;
2021/11/09 04:11:10;;;;;;;15.25;8.55;;;;;;;-0.3;65.63672;95966.43;;;;
2021/11/09 04:12:22;;;;;;;15.25;8.55;;;;;;;-0.3;65.63672;95966.43;;;;
2021/11/09 04:13:29;;;;;;;15.25;8.55;;;;;;;-0.3;65.63672;95966.43;;;;
2021/11/09 04:14:34;;;;;;;15.25;8.55;;;;;;;-0.3;65.63672;95966.43;;;;
2021/11/09 04:15:48;;;;;;;15.25;8.55;;;;;;;-0.3;65.63672;95966.43;;;;
2021/11/09 04:16:54;;;;;;;15.25;8.55;;;;;;;-0.3;65.63672;95966.43;;;;
2021/11/09 04:18:07;;;;;;;15.25;8.55;;;;;;;-0.3;65.63672;95966.43;;;;
2021/11/09 04:19:17;;;;;;;15.25;8.55;;;;;;;-0.3;65.63672;95966.43;;;;
2021/11/09 04:20:30;;;;;;;15.15;8.85;;;;;;;-0.56;65.83594;95977.06;;;;
2021/11/09 04:21:49;;;;;;;15.15;8.85;;;;;;;-0.56;65.83594;95977.06;;;;
2021/11/09 04:23:32;;;;;;;15.15;8.85;;;;;;;-0.56;65.83594;95977.06;;;;
2021/11/09 04:25:50;;;;;;;15.15;8.85;;;;;;;-0.56;65.83594;95977.06;;;;
2021/11/09 04:27:06;;;;;;;15.15;8.85;;;;;;;-0.56;65.83594;95977.06;;;;
2021/11/09 04:28:11;;;;;;;15.15;8.85;;;;;;;-0.56;65.83594;95977.06;;;;
2021/11/09 04:29:21;;;;;;;15.15;8.85;;;;;;;-0.56;65.83594;95977.06;;;;
2021/11/09 04:30:35;;;;;;;14.4;8.35;;;;;;;-0.67;65.9248;95985.66;;;;
2021/11/09 04:31:51;;;;;;;14.4;8.35;;;;;;;-0.67;65.9248;95985.66;;;;
2021/11/09 04:39:42;;;;;;;14.4;8.35;;;;;;;-0.67;65.9248;95985.66;;;;
2021/11/09 04:47:37;;;;;;;15.25;8.75;;;;;;;-0.77;66.05371;95992.01;;;;
2021/11/09 04:50:13;;;;;;;15.25;8.75;;;;;;;-0.77;66.05371;95992.01;;;;
2021/11/09 05:01:48;;;;;;;18.05;9.1;;;;;;;-0.83;66.22168;95993.92;;;;
2021/11/09 05:02:53;;;;;;;16.75;9;;;;;;;-0.89;66.26563;95995.83;;;;
2021/11/09 05:09:02;;;;;;;16.75;9;;;;;;;-0.89;66.26563;95995.83;;;;
2021/11/09 05:10:09;;;;;;;16.75;9;;;;;;;-0.89;66.26563;95995.83;;;;
2021/11/09 05:11:10;;;;;;;16.75;9;;;;;;;-0.89;66.26563;95995.83;;;;
2021/11/09 05:12:10;;;;;;;16.75;9;;;;;;;-0.89;66.26563;95995.83;;;;
2021/11/09 05:13:12;;;;;;;17.05;9.05;;;;;;;-0.94;66.3623;95998.1;;;;
2021/11/09 05:14:12;;;;;;;17.05;9.05;;;;;;;-0.94;66.3623;95998.1;;;;
2021/11/09 05:15:14;;;;;;;17.05;9.05;;;;;;;-0.94;66.3623;95998.1;;;;
2021/11/09 05:16:15;;;;;;;17.05;9.05;;;;;;;-0.94;66.3623;95998.1;;;;
2021/11/09 05:17:16;;;;;;;17.05;9.05;;;;;;;-0.94;66.3623;95998.1;;;;
2021/11/09 05:18:17;;;;;;;17.05;9.05;;;;;;;-0.94;66.3623;95998.1;;;;
2021/11/09 05:19:18;;;;;;;17.05;9.05;;;;;;;-0.94;66.3623;95998.1;;;;
2021/11/09 05:20:19;;;;;;;17.05;9.05;;;;;;;-0.94;66.3623;95998.1;;;;
2021/11/09 05:21:20;;;;;;;17.05;9.05;;;;;;;-0.94;66.3623;95998.1;;;;
2021/11/09 05:22:20;;;;;;;17.05;9.05;;;;;;;-0.94;66.3623;95998.1;;;;
2021/11/09 05:23:21;;;;;;;17.05;9.05;;;;;;;-0.94;66.3623;95998.1;;;;
2021/11/09 05:24:22;;;;;;;19.9;9.499998;;;;;;;-0.95;66.45508;95995.93;;;;
2021/11/09 05:25:23;;;;;;;19.9;9.499998;;;;;;;-0.95;66.45508;95995.93;;;;
2021/11/09 05:26:23;;;;;;;19.9;9.499998;;;;;;;-0.95;66.45508;95995.93;;;;
2021/11/09 05:27:26;;;;;;;19.9;9.499998;;;;;;;-0.95;66.45508;95995.93;;;;
2021/11/09 05:28:28;;;;;;;19.9;9.499998;;;;;;;-0.95;66.45508;95995.93;;;;
2021/11/09 05:29:28;;;;;;;19.9;9.499998;;;;;;;-0.95;66.45508;95995.93;;;;
2021/11/09 05:30:29;;;;;;;19.9;9.499998;;;;;;;-0.95;66.45508;95995.93;;;;
2021/11/09 05:31:30;;;;;;;19.9;9.499998;;;;;;;-0.95;66.45508;95995.93;;;;
2021/11/09 05:32:30;;;;;;;19.9;9.499998;;;;;;;-0.95;66.45508;95995.93;;;;
2021/11/09 05:33:32;;;;;;;19.9;9.499998;;;;;;;-0.95;66.45508;95995.93;;;;
2021/11/09 05:34:33;;;;;;;20.15;11.6;;;;;;;-0.93;66.55078;96011.67;;;;
2021/11/09 05:35:34;;;;;;;20.15;11.6;;;;;;;-0.93;66.55078;96011.67;;;;
2021/11/09 05:36:37;;;;;;;20.15;11.6;;;;;;;-0.93;66.55078;96011.67;;;;
2021/11/09 05:37:40;;;;;;;20.15;11.6;;;;;;;-0.93;66.55078;96011.67;;;;
2021/11/09 05:38:47;;;;;;;20.15;11.6;;;;;;;-0.93;66.55078;96011.67;;;;
2021/11/09 05:39:50;;;;;;;20.15;11.6;;;;;;;-0.93;66.55078;96011.67;;;;
2021/11/09 05:40:54;;;;;;;20.15;11.6;;;;;;;-0.93;66.55078;96011.67;;;;
2021/11/09 05:41:54;;;;;;;20.15;11.6;;;;;;;-0.93;66.55078;96011.67;;;;
2021/11/09 05:42:55;;;;;;;20.15;11.6;;;;;;;-0.93;66.55078;96011.67;;;;
2021/11/09 05:43:56;;;;;;;20.15;11.6;;;;;;;-0.93;66.55078;96011.67;;;;
2021/11/09 05:44:57;;;;;;;20.15;11.6;;;;;;;-0.93;66.55078;96011.67;;;;
2021/11/09 05:45:58;;;;;;;27.15;12.95;;;;;;;-0.77;66.69238;96008.29;;;;
2021/11/09 05:46:58;;;;;;;27.15;12.95;;;;;;;-0.77;66.69238;96008.29;;;;
2021/11/09 05:47:59;;;;;;;27.15;12.95;;;;;;;-0.77;66.69238;96008.29;;;;
2021/11/09 05:49:00;;;;;;;27.15;12.95;;;;;;;-0.77;66.69238;96008.29;;;;
2021/11/09 05:50:00;;;;;;;27.15;12.95;;;;;;;-0.77;66.69238;96008.29;;;;
2021/11/09 05:51:01;;;;;;;27.15;12.95;;;;;;;-0.77;66.69238;96008.29;;;;
2021/11/09 05:52:01;;;;;;;27.15;12.95;;;;;;;-0.77;66.69238;96008.29;;;;
2021/11/09 05:53:03;;;;;;;27.15;12.95;;;;;;;-0.77;66.69238;96008.29;;;;
2021/11/09 05:54:04;;;;;;;27.15;12.95;;;;;;;-0.77;66.69238;96008.29;;;;
2021/11/09 05:55:06;;;;;;;27.15;12.95;;;;;;;-0.77;66.69238;96008.29;;;;
2021/11/09 05:56:07;;;;;;;43.80001;16.2;;;;;;;-0.56;66.76758;95991.13;;;;
2021/11/09 05:57:08;;;;;;;43.80001;16.2;;;;;;;-0.56;66.76758;95991.13;;;;
2021/11/09 05:58:08;;;;;;;43.80001;16.2;;;;;;;-0.56;66.76758;95991.13;;;;
2021/11/09 05:59:09;;;;;;;43.80001;16.2;;;;;;;-0.56;66.76758;95991.13;;;;
2021/11/09 06:00:10;;;;;;;43.80001;16.2;;;;;;;-0.56;66.76758;95991.13;;;;
2021/11/09 06:01:14;;;;;;;43.80001;16.2;;;;;;;-0.56;66.76758;95991.13;;;;
2021/11/09 06:02:14;;;;;;;43.80001;16.2;;;;;;;-0.56;66.76758;95991.13;;;;
2021/11/09 06:03:15;;;;;;;43.80001;16.2;;;;;;;-0.56;66.76758;95991.13;;;;
2021/11/09 06:04:16;;;;;;;43.80001;16.2;;;;;;;-0.56;66.76758;95991.13;;;;
2021/11/09 06:05:16;;;;;;;43.80001;16.2;;;;;;;-0.56;66.76758;95991.13;;;;
2021/11/09 06:06:17;;;;;;;43.80001;16.2;;;;;;;-0.56;66.76758;95991.13;;;;
2021/11/09 06:07:18;;;;;;;33.1;17.35;;;;;;;-0.34;66.83301;96000.45;;;;
2021/11/09 06:08:19;;;;;;;33.1;17.35;;;;;;;-0.34;66.83301;96000.45;;;;
2021/11/09 06:09:20;;;;;;;33.1;17.35;;;;;;;-0.34;66.83301;96000.45;;;;
2021/11/09 06:10:20;;;;;;;33.1;17.35;;;;;;;-0.34;66.83301;96000.45;;;;
2021/11/09 06:11:22;;;;;;;33.1;17.35;;;;;;;-0.34;66.83301;96000.45;;;;
2021/11/09 06:12:23;;;;;;;33.1;17.35;;;;;;;-0.34;66.83301;96000.45;;;;
2021/11/09 06:13:24;;;;;;;33.1;17.35;;;;;;;-0.34;66.83301;96000.45;;;;
2021/11/09 06:14:24;;;;;;;33.1;17.35;;;;;;;-0.34;66.83301;96000.45;;;;
2021/11/09 06:15:25;;;;;;;33.1;17.35;;;;;;;-0.34;66.83301;96000.45;;;;
2021/11/09 06:16:25;;;;;;;33.1;17.35;;;;;;;-0.34;66.83301;96000.45;;;;
2021/11/09 06:17:26;;;;;;;41.25;19.05;;;;;;;-0.09;66.92383;96005.92;;;;
2021/11/09 06:18:26;;;;;;;41.25;19.05;;;;;;;-0.09;66.92383;96005.92;;;;
2021/11/09 06:19:27;;;;;;;41.25;19.05;;;;;;;-0.09;66.92383;96005.92;;;;
2021/11/09 06:20:28;;;;;;;41.25;19.05;;;;;;;-0.09;66.92383;96005.92;;;;
2021/11/09 06:21:28;;;;;;;41.25;19.05;;;;;;;-0.09;66.92383;96005.92;;;;
2021/11/09 06:22:29;;;;;;;41.25;19.05;;;;;;;-0.09;66.92383;96005.92;;;;
2021/11/09 06:23:30;;;;;;;41.25;19.05;;;;;;;-0.09;66.92383;96005.92;;;;
2021/11/09 06:24:31;;;;;;;41.25;19.05;;;;;;;-0.09;66.92383;96005.92;;;;
2021/11/09 06:25:31;;;;;;;41.25;19.05;;;;;;;-0.09;66.92383;96005.92;;;;
2021/11/09 06:26:32;;;;;;;41.25;19.05;;;;;;;-0.09;66.92383;96005.92;;;;
2021/11/09 06:27:35;;;;;;;41.25;19.05;;;;;;;-0.09;66.92383;96005.92;;;;
2021/11/09 06:28:35;;;;;;;46.35;18.25;;;;;;;0.22;66.99512;96012.87;;;;
2021/11/09 06:29:38;;;;;;;46.35;18.25;;;;;;;0.22;66.99512;96012.87;;;;
2021/11/09 06:30:39;;;;;;;46.35;18.25;;;;;;;0.22;66.99512;96012.87;;;;
2021/11/09 06:31:41;;;;;;;46.35;18.25;;;;;;;0.22;66.99512;96012.87;;;;
2021/11/09 06:32:42;;;;;;;46.35;18.25;;;;;;;0.22;66.99512;96012.87;;;;
2021/11/09 06:33:43;;;;;;;46.35;18.25;;;;;;;0.22;66.99512;96012.87;;;;
2021/11/09 06:34:43;;;;;;;46.35;18.25;;;;;;;0.22;66.99512;96012.87;;;;
2021/11/09 06:35:45;;;;;;;46.35;18.25;;;;;;;0.22;66.99512;96012.87;;;;
2021/11/09 06:36:46;;;;;;;46.35;18.25;;;;;;;0.22;66.99512;96012.87;;;;
2021/11/09 06:37:46;;;;;;;46.35;18.25;;;;;;;0.22;66.99512;96012.87;;;;
2021/11/09 06:38:47;;;;;;;50.14999;18.25;;;;;;;0.53;67.14746;96028.76;;;;
2021/11/09 06:39:47;;;;;;;50.14999;18.25;;;;;;;0.53;67.14746;96028.76;;;;
2021/11/09 06:40:49;;;;;;;50.14999;18.25;;;;;;;0.53;67.14746;96028.76;;;;
2021/11/09 06:41:51;;;;;;;50.14999;18.25;;;;;;;0.53;67.14746;96028.76;;;;
2021/11/09 06:42:51;;;;;;;50.14999;18.25;;;;;;;0.53;67.14746;96028.76;;;;
2021/11/09 06:43:52;;;;;;;50.14999;18.25;;;;;;;0.53;67.14746;96028.76;;;;
2021/11/09 06:44:52;;;;;;;50.14999;18.25;;;;;;;0.53;67.14746;96028.76;;;;
2021/11/09 06:45:56;;;;;;;50.14999;18.25;;;;;;;0.53;67.14746;96028.76;;;;
2021/11/09 06:46:58;;;;;;;50.14999;18.25;;;;;;;0.53;67.14746;96028.76;;;;
2021/11/09 06:47:58;;;;;;;50.14999;18.25;;;;;;;0.53;67.14746;96028.76;;;;